createdAt,value
2017-07-19T00:01:51.703Z,99953.53
2017-07-19T00:04:55.244Z,99956.15
2017-07-19T00:07:58.555Z,99957.60
2017-07-19T00:11:02.677Z,99949.66
2017-07-19T00:14:06.011Z,99951.42
2017-07-19T00:17:10.164Z,99949.09
2017-07-19T00:20:13.490Z,99936.59
2017-07-19T00:23:16.853Z,99932.89
2017-07-19T00:26:20.202Z,99932.13
2017-07-19T00:29:23.552Z,99923.61
2017-07-19T00:32:26.882Z,99924.06
2017-07-19T00:35:30.272Z,99918.34
2017-07-19T00:38:33.579Z,99916.02
2017-07-19T00:41:37.688Z,99906.44
2017-07-19T00:44:41.799Z,99899.58
2017-07-19T00:47:45.143Z,99890.67
2017-07-19T00:50:48.698Z,99886.33
2017-07-19T00:53:52.039Z,99887.32
2017-07-19T00:56:55.383Z,99894.42
2017-07-19T00:59:58.677Z,99882.50
2017-07-19T01:03:02.035Z,99886.05
2017-07-19T01:06:05.406Z,99880.28
2017-07-19T01:09:08.750Z,99890.62
2017-07-19T01:12:12.067Z,99878.35
2017-07-19T01:15:15.392Z,99878.55
2017-07-19T01:18:18.726Z,99871.89
2017-07-19T01:21:22.070Z,99868.11
2017-07-19T01:24:26.173Z,99869.69
2017-07-19T01:27:30.303Z,99869.03
2017-07-19T01:30:33.679Z,99868.30
2017-07-19T01:33:37.012Z,99862.63
2017-07-19T01:36:40.340Z,99861.86
2017-07-19T01:39:43.666Z,99853.97
2017-07-19T01:42:47.006Z,99850.44
2017-07-19T01:45:50.308Z,99852.34
2017-07-19T01:48:53.635Z,99847.36
2017-07-19T01:51:56.954Z,99843.01
2017-07-19T01:55:00.284Z,99852.06
2017-07-19T01:58:03.614Z,99849.66
2017-07-19T02:01:06.963Z,99845.39
2017-07-19T02:04:10.259Z,99830.86
2017-07-19T02:07:13.612Z,99838.23
2017-07-19T02:10:16.916Z,99839.63
2017-07-19T02:13:21.016Z,99838.56
2017-07-19T02:16:24.303Z,99826.30
2017-07-19T02:19:27.821Z,99828.99
2017-07-19T02:22:31.131Z,99829.52
2017-07-19T02:25:35.227Z,99830.72
2017-07-19T02:28:38.516Z,99819.65
2017-07-19T02:31:41.853Z,99816.39
2017-07-19T02:34:45.171Z,99810.09
2017-07-19T02:37:48.514Z,99811.14
2017-07-19T02:40:51.947Z,99806.67
2017-07-19T02:43:55.282Z,99808.17
2017-07-19T02:46:58.658Z,99806.44
2017-07-19T02:50:01.966Z,99800.13
2017-07-19T02:53:05.306Z,99798.84
2017-07-19T02:56:09.394Z,99803.03
2017-07-19T02:59:12.747Z,99800.76
2017-07-19T03:02:16.041Z,99795.24
2017-07-19T03:05:19.395Z,99787.98
2017-07-19T03:08:22.710Z,99790.80
2017-07-19T03:11:26.808Z,99794.51
2017-07-19T03:14:30.154Z,99783.59
2017-07-19T03:17:33.474Z,99791.77
2017-07-19T03:20:36.846Z,99794.41
2017-07-19T03:23:40.136Z,99791.53
2017-07-19T03:26:43.480Z,99794.03
2017-07-19T03:29:47.558Z,99793.73
2017-07-19T03:32:50.914Z,99791.63
2017-07-19T03:35:54.218Z,99792.63
2017-07-19T03:38:57.540Z,99791.53
2017-07-19T03:42:00.835Z,99786.33
2017-07-19T03:45:04.203Z,99779.03
2017-07-19T03:48:07.935Z,99771.20
2017-07-19T03:51:11.271Z,99769.31
2017-07-19T03:54:15.360Z,99769.84
2017-07-19T03:57:18.679Z,99771.92
2017-07-19T04:00:22.001Z,99761.44
2017-07-19T04:03:25.349Z,99757.59
2017-07-19T04:06:28.671Z,99758.89
2017-07-19T04:09:32.010Z,99764.03
2017-07-19T04:12:35.355Z,99764.70
2017-07-19T04:15:38.690Z,99763.98
2017-07-19T04:18:42.034Z,99767.24
2017-07-19T04:21:45.488Z,99767.78
2017-07-19T04:24:48.803Z,99766.42
2017-07-19T04:27:52.147Z,99767.28
2017-07-19T04:30:55.463Z,99757.14
2017-07-19T04:33:59.597Z,99751.65
2017-07-19T04:37:02.915Z,99754.91
2017-07-19T04:40:06.258Z,99754.54
2017-07-19T04:43:10.315Z,99749.05
2017-07-19T04:46:13.647Z,99756.00
2017-07-19T04:49:16.963Z,99750.82
2017-07-19T04:52:20.329Z,99762.34
2017-07-19T04:55:23.642Z,99752.63
2017-07-19T04:58:26.971Z,99756.55
2017-07-19T05:01:31.051Z,99753.25
2017-07-19T05:04:34.418Z,99750.73
2017-07-19T05:07:37.871Z,99749.31
2017-07-19T05:10:41.928Z,99753.08
2017-07-19T05:13:45.250Z,99751.59
2017-07-19T05:16:48.566Z,99757.00
2017-07-19T05:19:51.938Z,99748.00
2017-07-19T05:22:55.288Z,99755.69
2017-07-19T05:25:58.657Z,99760.52
2017-07-19T05:29:02.110Z,99749.11
2017-07-19T05:32:05.424Z,99740.34
2017-07-19T05:35:08.760Z,99743.42
2017-07-19T05:38:12.077Z,99734.95
2017-07-19T05:41:15.635Z,99731.03
2017-07-19T05:44:18.930Z,99724.86
2017-07-19T05:47:22.280Z,99718.69
2017-07-19T05:50:25.584Z,99720.19
2017-07-19T05:53:28.919Z,99722.50
2017-07-19T05:56:32.219Z,99711.83
2017-07-19T05:59:35.590Z,99719.34
2017-07-19T06:02:39.038Z,99709.66
2017-07-19T06:05:43.134Z,99706.95
2017-07-19T06:08:46.475Z,99696.52
2017-07-19T06:11:49.821Z,99697.33
2017-07-19T06:14:53.151Z,99700.03
2017-07-19T06:17:57.231Z,99708.88
2017-07-19T06:21:01.346Z,99699.48
2017-07-19T06:24:05.423Z,99694.91
2017-07-19T06:27:08.780Z,99697.11
2017-07-19T06:30:12.107Z,99691.05
2017-07-19T06:33:15.451Z,99688.58
2017-07-19T06:36:19.553Z,99683.02
2017-07-19T06:39:22.903Z,99679.38
2017-07-19T06:42:26.214Z,99679.91
2017-07-19T06:45:29.559Z,99680.45
2017-07-19T06:48:33.853Z,99669.62
2017-07-19T06:51:37.190Z,99669.64
2017-07-19T06:54:40.531Z,99668.01
2017-07-19T06:57:43.867Z,99668.83
2017-07-19T07:00:47.215Z,99659.94
2017-07-19T07:03:50.563Z,99661.93
2017-07-19T07:06:53.910Z,99660.08
2017-07-19T07:09:57.416Z,99659.70
2017-07-19T07:13:00.745Z,99663.14
2017-07-19T07:16:04.094Z,99658.58
2017-07-19T07:19:07.412Z,99649.89
2017-07-19T07:22:10.738Z,99656.52
2017-07-19T07:25:14.075Z,99645.45
2017-07-19T07:28:18.167Z,99645.31
2017-07-19T07:31:21.463Z,99647.66
2017-07-19T07:34:24.796Z,99643.78
2017-07-19T07:37:28.107Z,99637.28
2017-07-19T07:40:31.455Z,99648.17
2017-07-19T07:43:34.920Z,99646.92
2017-07-19T07:46:38.248Z,99642.23
2017-07-19T07:49:41.602Z,99633.47
2017-07-19T07:52:44.923Z,99633.16
2017-07-19T07:55:48.299Z,99619.75
2017-07-19T07:58:51.812Z,99608.95
2017-07-19T08:01:55.136Z,99609.56
2017-07-19T08:04:58.495Z,99620.91
2017-07-19T08:08:01.838Z,99625.48
2017-07-19T08:11:05.191Z,99627.63
2017-07-19T08:14:08.503Z,99622.06
2017-07-19T08:17:11.855Z,99622.38
2017-07-19T08:20:15.207Z,99613.71
2017-07-19T08:23:18.560Z,99612.77
2017-07-19T08:26:21.903Z,99608.66
2017-07-19T08:29:25.539Z,99602.38
2017-07-19T08:32:29.628Z,99597.47
2017-07-19T08:35:33.002Z,99595.88
2017-07-19T08:38:36.355Z,99593.95
2017-07-19T08:41:39.696Z,99600.38
2017-07-19T08:44:43.011Z,99587.47
2017-07-19T08:47:46.383Z,99585.00
2017-07-19T08:50:50.113Z,99571.80
2017-07-19T08:53:53.462Z,99567.00
2017-07-19T08:56:56.822Z,99575.47
2017-07-19T09:00:00.168Z,99571.57
2017-07-19T09:03:03.522Z,99569.58
2017-07-19T09:06:06.858Z,99565.95
2017-07-19T09:09:10.496Z,99568.33
2017-07-19T09:12:13.795Z,99567.34
2017-07-19T09:15:17.238Z,99564.05
2017-07-19T09:18:20.582Z,99560.67
2017-07-19T09:21:23.957Z,99560.23
2017-07-19T09:24:27.272Z,99557.22
2017-07-19T09:27:30.623Z,99545.45
2017-07-19T09:30:33.943Z,99557.89
2017-07-19T09:33:37.275Z,99549.34
2017-07-19T09:36:40.606Z,99553.97
2017-07-19T09:39:44.719Z,99552.01
2017-07-19T09:42:48.838Z,99556.45
2017-07-19T09:45:52.904Z,99553.97
2017-07-19T09:48:56.275Z,99554.30
2017-07-19T09:51:59.591Z,99550.57
2017-07-19T09:55:02.964Z,99541.61
2017-07-19T09:58:06.303Z,99545.01
2017-07-19T10:01:09.636Z,99548.19
2017-07-19T10:04:13.697Z,99545.66
2017-07-19T10:07:17.043Z,99543.81
2017-07-19T10:10:21.127Z,99540.33
2017-07-19T10:13:24.500Z,99537.76
2017-07-19T10:16:27.808Z,99537.38
2017-07-19T10:19:31.136Z,99539.45
2017-07-19T10:22:34.428Z,99532.38
2017-07-19T10:25:37.779Z,99536.55
2017-07-19T10:28:41.110Z,99538.13
2017-07-19T10:31:44.467Z,99534.95
2017-07-19T10:34:47.983Z,99545.39
2017-07-19T10:37:51.295Z,99552.56
2017-07-19T10:40:54.662Z,99540.89
2017-07-19T10:43:57.984Z,99543.00
2017-07-19T10:47:01.333Z,99540.94
2017-07-19T10:50:04.648Z,99543.50
2017-07-19T10:53:08.004Z,99534.86
2017-07-19T10:56:12.078Z,99526.00
2017-07-19T10:59:15.435Z,99518.68
2017-07-19T11:02:18.771Z,99519.66
2017-07-19T11:05:22.120Z,99518.72
2017-07-19T11:08:25.418Z,99506.98
2017-07-19T11:11:29.559Z,99501.73
2017-07-19T11:14:32.876Z,99500.55
2017-07-19T11:17:36.204Z,99498.52
2017-07-19T11:20:39.543Z,99489.91
2017-07-19T11:23:42.924Z,99486.59
2017-07-19T11:26:46.247Z,99482.69
2017-07-19T11:29:49.610Z,99474.39
2017-07-19T11:32:53.676Z,99473.38
2017-07-19T11:35:57.003Z,99477.20
2017-07-19T11:39:00.314Z,99472.91
2017-07-19T11:42:04.436Z,99473.66
2017-07-19T11:45:08.496Z,99476.32
2017-07-19T11:48:11.874Z,99479.34
2017-07-19T11:51:15.200Z,99479.39
2017-07-19T11:54:18.570Z,99477.02
2017-07-19T11:57:21.895Z,99479.88
2017-07-19T12:00:25.225Z,99479.77
2017-07-19T12:03:29.316Z,99468.59
2017-07-19T12:06:32.663Z,99463.20
2017-07-19T12:09:36.811Z,99476.75
2017-07-19T12:12:40.176Z,99468.90
2017-07-19T12:15:43.722Z,99469.03
2017-07-19T12:18:47.020Z,99475.50
2017-07-19T12:21:51.128Z,99461.88
2017-07-19T12:24:55.242Z,99460.92
2017-07-19T12:27:59.340Z,99455.77
2017-07-19T12:31:03.030Z,99447.16
2017-07-19T12:34:06.343Z,99447.06
2017-07-19T12:37:10.443Z,99462.09
2017-07-19T12:40:13.744Z,99466.76
2017-07-19T12:43:17.092Z,99451.44
2017-07-19T12:46:20.445Z,99461.49
2017-07-19T12:49:24.543Z,99462.97
2017-07-19T12:52:28.148Z,99467.53
2017-07-19T12:55:31.486Z,99451.98
2017-07-19T12:58:34.824Z,99463.34
2017-07-19T13:01:38.119Z,99458.08
2017-07-19T13:04:41.494Z,99450.19
2017-07-19T13:07:44.816Z,99458.70
2017-07-19T13:10:48.195Z,99449.96
2017-07-19T13:13:51.491Z,99437.13
2017-07-19T13:16:54.834Z,99421.34
2017-07-19T13:19:58.181Z,99415.38
2017-07-19T13:23:01.535Z,99423.69
2017-07-19T13:26:04.910Z,99413.40
2017-07-19T13:29:08.228Z,99408.91
2017-07-19T13:32:11.557Z,99405.72
2017-07-19T13:35:14.867Z,99406.05
2017-07-19T13:38:18.197Z,99403.98
2017-07-19T13:41:21.528Z,99406.80
2017-07-19T13:44:24.852Z,99399.17
2017-07-19T13:47:28.148Z,99407.98
2017-07-19T13:50:32.283Z,99405.42
2017-07-19T13:53:35.600Z,99391.16
2017-07-19T13:56:38.940Z,99395.29
2017-07-19T13:59:42.267Z,99389.98
2017-07-19T14:02:45.612Z,99405.52
2017-07-19T14:05:48.927Z,99426.48
2017-07-19T14:08:52.511Z,99424.05
2017-07-19T14:15:31.336Z,99430.69
2017-07-19T14:18:34.656Z,99448.55
2017-07-19T14:21:38.805Z,99448.06
2017-07-19T14:24:42.139Z,99435.73
2017-07-19T14:27:45.488Z,99442.56
2017-07-19T14:30:48.852Z,99452.76
2017-07-19T14:33:52.987Z,99505.05
2017-07-19T14:36:58.090Z,99542.89
2017-07-19T14:40:01.439Z,99615.20
2017-07-19T14:43:04.825Z,99614.39
2017-07-19T14:46:08.897Z,99631.84
2017-07-19T14:49:12.272Z,99661.29
2017-07-19T14:52:15.622Z,99728.83
2017-07-19T14:55:18.980Z,99742.09
2017-07-19T14:58:22.289Z,99731.79
2017-07-19T15:01:25.660Z,99755.66
2017-07-19T15:04:28.979Z,99773.91
2017-07-19T15:07:32.355Z,99787.59
2017-07-19T15:10:35.820Z,99777.51
2017-07-19T15:13:39.217Z,99763.20
2017-07-19T15:16:43.144Z,99747.80
2017-07-19T15:19:46.509Z,99741.02
2017-07-19T15:22:50.632Z,99707.95
2017-07-19T15:25:54.812Z,99716.76
2017-07-19T15:28:58.176Z,99718.79
2017-07-19T15:32:01.531Z,99716.65
2017-07-19T15:35:04.938Z,99725.19
2017-07-19T15:38:09.108Z,99752.16
2017-07-19T15:41:12.497Z,99762.36
2017-07-19T15:44:16.306Z,99756.91
2017-07-19T15:47:19.653Z,99745.00
2017-07-19T15:50:24.249Z,99729.06
2017-07-19T15:53:27.582Z,99696.20
2017-07-19T15:56:31.764Z,99661.81
2017-07-19T15:59:35.076Z,99672.09
2017-07-19T16:02:38.478Z,99681.84
2017-07-19T16:05:42.659Z,99651.86
2017-07-19T16:08:46.035Z,99641.14
2017-07-19T16:11:49.415Z,99619.66
2017-07-19T16:14:53.536Z,99603.77
2017-07-19T16:17:57.431Z,99594.41
2017-07-19T16:21:01.666Z,99594.16
2017-07-19T16:24:05.039Z,99603.63
2017-07-19T16:27:08.364Z,99609.06
2017-07-19T16:30:11.721Z,99603.00
2017-07-19T16:33:15.094Z,99603.36
2017-07-19T16:36:18.864Z,99602.31
2017-07-19T16:39:22.199Z,99574.69
2017-07-19T16:42:25.614Z,99578.89
2017-07-19T16:45:28.948Z,99579.06
2017-07-19T16:48:32.313Z,99572.53
2017-07-19T16:51:35.739Z,99564.36
2017-07-19T16:54:39.156Z,99557.38
2017-07-19T16:57:43.276Z,99543.16
2017-07-19T17:00:46.792Z,99532.04
2017-07-19T17:03:50.204Z,99511.41
2017-07-19T17:06:53.584Z,99507.43
2017-07-19T17:09:56.908Z,99491.63
2017-07-19T17:13:00.310Z,99479.92
2017-07-19T17:16:03.662Z,99467.58
2017-07-19T17:19:07.764Z,99457.08
2017-07-19T17:22:11.852Z,99451.24
2017-07-19T17:25:15.968Z,99449.71
2017-07-19T17:28:20.276Z,99447.16
2017-07-19T17:31:23.607Z,99451.04
2017-07-19T17:34:26.960Z,99459.61
2017-07-19T17:37:30.284Z,99461.38
2017-07-19T17:40:34.399Z,99457.06
2017-07-19T17:43:38.491Z,99467.34
2017-07-19T17:46:42.140Z,99458.55
2017-07-19T17:49:45.445Z,99451.84
2017-07-19T17:52:48.794Z,99456.43
2017-07-19T17:55:53.224Z,99459.23
2017-07-19T17:58:57.339Z,99455.87
2017-07-19T18:02:01.460Z,99460.37
2017-07-19T18:05:05.760Z,99455.28
2017-07-19T18:08:09.657Z,99462.59
2017-07-19T18:11:14.661Z,99460.30
2017-07-19T18:14:18.454Z,99463.42
2017-07-19T18:17:23.553Z,99461.41
2017-07-19T18:20:28.795Z,99453.96
2017-07-19T18:23:32.771Z,99453.77
2017-07-19T18:26:36.161Z,99457.84
2017-07-19T18:29:39.499Z,99461.25
2017-07-19T18:32:43.309Z,99456.78
2017-07-19T18:35:48.072Z,99461.53
2017-07-19T18:38:51.500Z,99461.16
2017-07-19T18:41:58.214Z,99453.66
2017-07-19T18:45:01.854Z,99453.33
2017-07-19T18:48:09.513Z,99447.30
2017-07-19T18:51:12.899Z,99448.98
2017-07-19T18:54:18.087Z,99442.27
2017-07-19T18:57:21.738Z,99447.09
2017-07-19T19:00:25.255Z,99447.33
2017-07-19T19:03:30.527Z,99438.42
2017-07-19T19:06:34.555Z,99432.72
2017-07-19T19:09:39.519Z,99429.44
2017-07-19T19:12:43.848Z,99435.64
2017-07-19T19:15:47.498Z,99438.92
2017-07-19T19:18:51.138Z,99424.21
2017-07-19T19:21:54.531Z,99426.84
2017-07-19T19:24:58.041Z,99431.75
2017-07-19T19:28:01.705Z,99431.41
2017-07-19T19:31:05.070Z,99437.55
2017-07-19T19:34:09.258Z,99439.52
2017-07-19T19:37:13.005Z,99442.34
2017-07-19T19:40:16.379Z,99446.87
2017-07-19T19:43:21.502Z,99444.28
2017-07-19T19:46:25.588Z,99449.63
2017-07-19T19:49:28.963Z,99443.11
2017-07-19T19:52:32.375Z,99438.06
2017-07-19T19:55:36.565Z,99452.34
2017-07-19T19:58:40.790Z,99448.43
2017-07-19T20:01:44.528Z,99450.30
2017-07-19T20:04:48.682Z,99450.80
2017-07-19T20:11:27.034Z,99451.39
2017-07-19T20:14:30.371Z,99449.01
2017-07-19T20:17:34.618Z,99441.25
2017-07-19T20:20:38.694Z,99445.54
2017-07-19T20:23:42.035Z,99445.58
2017-07-19T20:26:45.342Z,99443.55
2017-07-19T20:29:48.658Z,99446.43
2017-07-19T20:32:51.966Z,99443.03
2017-07-19T20:35:55.315Z,99441.19
2017-07-19T20:38:59.386Z,99449.70
2017-07-19T20:42:02.718Z,99447.36
2017-07-19T20:45:06.766Z,99446.88
2017-07-19T20:48:10.075Z,99450.38
2017-07-19T20:51:13.390Z,99446.41
2017-07-19T20:54:16.679Z,99450.33
2017-07-19T20:57:19.998Z,99448.62
2017-07-19T21:00:23.302Z,99442.46
2017-07-19T21:03:26.633Z,99441.81
2017-07-19T21:06:29.940Z,99443.57
2017-07-19T21:09:33.671Z,99441.91
2017-07-19T21:12:36.945Z,99450.31
2017-07-19T21:15:40.274Z,99452.63
2017-07-19T21:18:43.584Z,99455.16
2017-07-19T21:21:46.921Z,99460.97
2017-07-19T21:24:50.208Z,99463.25
2017-07-19T21:27:53.517Z,99453.19
2017-07-19T21:30:56.982Z,99460.44
2017-07-19T21:34:01.052Z,99457.98
2017-07-19T21:37:04.385Z,99467.06
2017-07-19T21:40:07.675Z,99467.13
2017-07-19T21:43:10.991Z,99456.05
2017-07-19T21:46:15.053Z,99462.09
2017-07-19T21:49:18.536Z,99464.73
2017-07-19T21:52:21.868Z,99459.64
2017-07-19T21:55:25.166Z,99453.90
2017-07-19T21:58:28.513Z,99458.72
2017-07-19T22:01:31.815Z,99459.40
2017-07-19T22:04:35.150Z,99459.34
2017-07-19T22:07:38.458Z,99457.37
2017-07-19T22:10:41.797Z,99454.61
2017-07-19T22:13:45.100Z,99454.17
2017-07-19T22:16:48.424Z,99461.07
2017-07-19T22:19:52.073Z,99460.54
2017-07-19T22:22:55.377Z,99463.62
2017-07-19T22:25:59.477Z,99458.93
2017-07-19T22:29:02.780Z,99456.66
2017-07-19T22:32:06.881Z,99455.80
2017-07-19T22:35:10.950Z,99458.35
2017-07-19T22:38:14.283Z,99452.80
2017-07-19T22:41:17.811Z,99447.78
2017-07-19T22:44:21.150Z,99447.82
2017-07-19T22:47:24.458Z,99443.80
2017-07-19T22:50:27.796Z,99448.25
2017-07-19T22:53:31.100Z,99458.83
2017-07-19T22:56:34.439Z,99452.30
2017-07-19T22:59:38.518Z,99458.47
2017-07-19T23:02:41.838Z,99452.82
2017-07-19T23:05:45.121Z,99453.13
2017-07-19T23:08:48.537Z,99443.91
2017-07-19T23:11:53.850Z,99446.41
2017-07-19T23:14:58.073Z,99443.67
2017-07-19T23:18:01.873Z,99444.78
2017-07-19T23:21:05.975Z,99445.48
2017-07-19T23:24:09.330Z,99441.86
2017-07-19T23:27:12.624Z,99448.70
2017-07-19T23:30:15.941Z,99439.34
2017-07-19T23:33:19.298Z,99453.09
2017-07-19T23:36:22.616Z,99449.39
2017-07-19T23:39:25.930Z,99451.53
2017-07-19T23:42:29.229Z,99451.38
2017-07-19T23:45:32.538Z,99453.89
2017-07-19T23:48:35.820Z,99452.78
2017-07-19T23:51:39.427Z,99453.09
2017-07-19T23:54:42.732Z,99443.19
2017-07-19T23:57:46.223Z,99438.11
